createdAt,value
2023-05-07T00:00:52.197Z,13.10
2023-05-07T00:05:47.494Z,13.10
2023-05-07T00:08:14.676Z,13.10
2023-05-07T00:10:42.273Z,13.00
2023-05-07T00:13:09.539Z,13.00
2023-05-07T00:15:36.811Z,13.00
2023-05-07T00:18:04.201Z,12.90
2023-05-07T00:20:31.454Z,13.00
2023-05-07T00:22:58.776Z,13.00
2023-05-07T00:25:26.046Z,12.90
2023-05-07T00:27:53.190Z,12.90
2023-05-07T00:30:20.924Z,12.90
2023-05-07T00:32:49.879Z,12.80
2023-05-07T00:35:17.110Z,12.90
2023-05-07T00:37:44.538Z,12.90
2023-05-07T00:40:12.462Z,12.80
2023-05-07T00:42:39.882Z,12.80
2023-05-07T00:45:10.077Z,12.90
2023-05-07T00:47:37.914Z,12.80
2023-05-07T00:50:06.898Z,12.70
2023-05-07T00:52:34.674Z,12.70
2023-05-07T00:55:07.199Z,12.70
2023-05-07T00:57:41.836Z,12.70
2023-05-07T01:00:10.964Z,12.70
2023-05-07T01:02:39.106Z,12.70
2023-05-07T01:05:08.924Z,12.70
2023-05-07T01:07:38.020Z,12.60
2023-05-07T01:10:07.588Z,12.60
2023-05-07T01:12:36.167Z,12.60
2023-05-07T01:15:05.615Z,12.60
2023-05-07T01:17:41.783Z,12.60
2023-05-07T01:20:15.098Z,12.60
2023-05-07T01:22:44.759Z,12.60
2023-05-07T01:25:12.703Z,12.70
2023-05-07T01:27:44.819Z,12.60
2023-05-07T01:30:12.825Z,12.70
2023-05-07T01:32:50.132Z,12.60
2023-05-07T01:35:21.737Z,12.70
2023-05-07T01:37:50.179Z,12.60
2023-05-07T01:40:17.808Z,12.70
2023-05-07T01:42:46.395Z,12.60
2023-05-07T01:45:13.700Z,12.60
2023-05-07T01:47:41.224Z,12.60
2023-05-07T01:50:12.201Z,12.60
2023-05-07T01:52:39.985Z,12.60
2023-05-07T01:55:07.945Z,12.50
2023-05-07T01:57:35.522Z,12.50
2023-05-07T02:00:04.123Z,12.60
2023-05-07T02:02:43.125Z,12.40
2023-05-07T02:05:21.311Z,12.40
2023-05-07T02:07:56.082Z,12.40
2023-05-07T02:10:23.850Z,12.30
2023-05-07T02:12:51.019Z,12.30
2023-05-07T02:15:18.248Z,12.30
2023-05-07T02:18:04.142Z,12.30
2023-05-07T02:20:31.989Z,12.30
2023-05-07T02:22:59.447Z,12.30
2023-05-07T02:25:28.449Z,12.30
2023-05-07T02:27:55.756Z,12.20
2023-05-07T02:30:29.233Z,12.20
2023-05-07T02:32:58.407Z,12.20
2023-05-07T02:35:26.977Z,12.20
2023-05-07T02:37:54.536Z,12.20
2023-05-07T02:40:23.057Z,12.20
2023-05-07T02:42:50.481Z,12.20
2023-05-07T02:45:18.056Z,12.20
2023-05-07T02:47:47.394Z,12.20
2023-05-07T02:50:15.594Z,12.20
2023-05-07T02:52:43.034Z,12.20
2023-05-07T02:55:10.323Z,12.10
2023-05-07T02:57:37.552Z,12.10
2023-05-07T03:00:17.251Z,12.10
2023-05-07T03:02:52.585Z,12.00
2023-05-07T03:05:19.994Z,11.90
2023-05-07T03:07:48.417Z,12.00
2023-05-07T03:10:16.357Z,11.90
2023-05-07T03:12:43.987Z,11.90
2023-05-07T03:15:16.175Z,11.90
2023-05-07T03:17:43.554Z,11.90
2023-05-07T03:20:12.064Z,11.80
2023-05-07T03:22:40.371Z,11.80
2023-05-07T03:25:08.672Z,11.90
2023-05-07T03:27:35.868Z,11.80
2023-05-07T03:30:03.416Z,11.80
2023-05-07T03:32:30.806Z,11.80
2023-05-07T03:34:58.008Z,11.80
2023-05-07T03:37:25.520Z,11.80
2023-05-07T03:39:52.710Z,11.80
2023-05-07T03:42:21.103Z,11.80
2023-05-07T03:44:50.886Z,12.00
2023-05-07T03:47:19.294Z,11.70
2023-05-07T03:49:49.170Z,11.80
2023-05-07T03:52:16.777Z,11.70
2023-05-07T03:54:43.985Z,11.80
2023-05-07T03:57:12.981Z,11.70
2023-05-07T03:59:40.873Z,11.70
2023-05-07T04:02:09.631Z,11.80
2023-05-07T04:04:37.091Z,11.70
2023-05-07T04:07:05.249Z,11.70
2023-05-07T04:09:38.000Z,11.60
2023-05-07T04:12:05.522Z,11.70
2023-05-07T04:14:33.229Z,11.70
2023-05-07T04:17:01.763Z,11.70
2023-05-07T04:19:29.728Z,11.70
2023-05-07T04:21:57.051Z,11.80
2023-05-07T04:24:24.289Z,11.70
2023-05-07T04:26:52.177Z,11.70
2023-05-07T04:29:21.996Z,11.70
2023-05-07T04:31:49.205Z,11.70
2023-05-07T04:34:16.522Z,11.80
2023-05-07T04:36:44.203Z,11.80
2023-05-07T04:39:14.546Z,11.80
2023-05-07T04:41:44.713Z,11.90
2023-05-07T04:44:13.239Z,12.00
2023-05-07T04:46:40.796Z,12.10
2023-05-07T04:49:08.036Z,12.10
2023-05-07T04:51:35.710Z,12.30
2023-05-07T04:54:03.315Z,12.30
2023-05-07T04:56:31.840Z,12.40
2023-05-07T04:59:00.847Z,12.30
2023-05-07T05:01:29.011Z,12.40
2023-05-07T05:03:56.508Z,12.40
2023-05-07T05:06:23.689Z,12.40
2023-05-07T05:08:52.071Z,12.40
2023-05-07T05:11:19.438Z,12.50
2023-05-07T05:13:48.254Z,12.50
2023-05-07T05:16:19.196Z,12.50
2023-05-07T05:18:46.648Z,12.40
2023-05-07T05:21:16.667Z,12.50
2023-05-07T05:23:46.154Z,12.50
2023-05-07T05:26:15.365Z,12.70
2023-05-07T05:28:42.679Z,12.90
2023-05-07T05:31:09.958Z,12.90
2023-05-07T05:33:37.773Z,13.00
2023-05-07T05:36:06.908Z,13.10
2023-05-07T05:38:34.770Z,13.20
2023-05-07T05:41:02.307Z,13.20
2023-05-07T05:43:31.029Z,13.30
2023-05-07T05:45:59.696Z,13.40
2023-05-07T05:48:26.974Z,13.50
2023-05-07T05:50:54.491Z,13.60
2023-05-07T05:53:21.693Z,13.80
2023-05-07T05:55:49.359Z,13.90
2023-05-07T05:58:17.317Z,14.10
2023-05-07T06:00:53.506Z,14.20
2023-05-07T06:03:23.695Z,14.50
2023-05-07T06:05:51.748Z,14.50
2023-05-07T06:08:21.588Z,14.60
2023-05-07T06:10:49.140Z,14.80
2023-05-07T06:13:16.896Z,14.90
2023-05-07T06:15:44.833Z,15.10
2023-05-07T06:18:14.136Z,15.30
2023-05-07T06:20:42.037Z,15.40
2023-05-07T06:23:17.800Z,15.50
2023-05-07T06:25:52.146Z,15.70
2023-05-07T06:28:22.721Z,15.80
2023-05-07T06:30:50.955Z,16.00
2023-05-07T06:33:20.568Z,16.00
2023-05-07T06:35:47.937Z,16.10
2023-05-07T06:38:15.390Z,16.20
2023-05-07T06:40:50.238Z,16.30
2023-05-07T06:43:17.666Z,16.40
2023-05-07T06:46:03.558Z,16.50
2023-05-07T06:48:30.841Z,16.60
2023-05-07T06:51:03.312Z,16.80
2023-05-07T06:53:31.849Z,16.80
2023-05-07T06:56:01.269Z,17.00
2023-05-07T06:58:28.452Z,17.10
2023-05-07T07:00:55.950Z,17.20
2023-05-07T07:03:24.061Z,17.30
2023-05-07T07:05:55.960Z,17.50
2023-05-07T07:08:23.841Z,17.50
2023-05-07T07:10:52.120Z,17.50
2023-05-07T07:13:20.271Z,17.50
2023-05-07T07:15:47.560Z,17.60
2023-05-07T07:18:14.909Z,17.70
2023-05-07T07:20:42.618Z,17.80
2023-05-07T07:23:09.884Z,17.90
2023-05-07T07:25:37.029Z,18.00
2023-05-07T07:28:04.792Z,18.20
2023-05-07T07:30:32.229Z,18.30
2023-05-07T07:33:04.029Z,18.30
2023-05-07T07:35:34.786Z,18.50
2023-05-07T07:38:02.737Z,18.60
2023-05-07T07:40:31.275Z,18.80
2023-05-07T07:42:58.937Z,18.80
2023-05-07T07:45:26.214Z,18.90
2023-05-07T07:47:53.507Z,19.00
2023-05-07T07:50:35.735Z,19.10
2023-05-07T07:53:08.992Z,19.20
2023-05-07T07:55:40.966Z,19.20
2023-05-07T07:58:08.764Z,19.30
2023-05-07T08:00:36.080Z,19.30
2023-05-07T08:03:04.537Z,19.50
2023-05-07T08:05:36.291Z,19.60
2023-05-07T08:08:05.885Z,19.60
2023-05-07T08:10:35.735Z,19.80
2023-05-07T08:13:09.108Z,19.70
2023-05-07T08:15:38.528Z,19.80
2023-05-07T08:18:06.591Z,19.90
2023-05-07T08:20:38.016Z,19.90
2023-05-07T08:23:05.674Z,20.00
2023-05-07T08:25:34.879Z,20.10
2023-05-07T08:28:02.757Z,20.10
2023-05-07T08:30:30.448Z,20.30
2023-05-07T08:32:58.097Z,20.40
2023-05-07T08:35:26.937Z,20.50
2023-05-07T08:37:55.001Z,20.50
2023-05-07T08:40:27.680Z,20.50
2023-05-07T08:42:57.897Z,20.60
2023-05-07T08:45:27.303Z,20.60
2023-05-07T08:48:00.650Z,20.70
2023-05-07T08:50:32.440Z,20.70
2023-05-07T08:53:01.148Z,20.70
2023-05-07T08:55:30.238Z,20.80
2023-05-07T08:57:58.039Z,20.80
2023-05-07T09:00:26.047Z,20.90
2023-05-07T09:02:55.673Z,21.20
2023-05-07T09:05:23.060Z,21.30
2023-05-07T09:07:53.929Z,21.30
2023-05-07T09:10:22.747Z,21.40
2023-05-07T09:12:51.702Z,21.40
2023-05-07T09:15:19.590Z,21.50
2023-05-07T09:17:47.324Z,21.50
2023-05-07T09:20:14.960Z,21.50
2023-05-07T09:22:42.211Z,21.40
2023-05-07T09:25:13.209Z,21.50
2023-05-07T09:27:43.039Z,21.60
2023-05-07T09:30:13.566Z,21.70
2023-05-07T09:32:51.362Z,21.80
2023-05-07T09:35:25.090Z,21.90
2023-05-07T09:38:00.248Z,22.00
2023-05-07T09:40:33.807Z,22.10
2023-05-07T09:43:14.409Z,22.00
2023-05-07T09:45:52.314Z,22.10
2023-05-07T09:48:27.136Z,22.20
2023-05-07T09:51:02.353Z,22.30
2023-05-07T09:53:32.393Z,22.30
2023-05-07T09:56:05.009Z,22.40
2023-05-07T09:58:34.339Z,22.40
2023-05-07T10:01:03.331Z,22.40
2023-05-07T10:03:33.519Z,22.40
2023-05-07T10:06:06.533Z,22.50
2023-05-07T10:08:36.246Z,22.60
2023-05-07T10:11:06.054Z,22.60
2023-05-07T10:13:38.143Z,22.80
2023-05-07T10:16:08.540Z,23.00
2023-05-07T10:18:42.721Z,23.10
2023-05-07T10:21:19.201Z,23.10
2023-05-07T10:23:51.932Z,23.00
2023-05-07T10:26:23.235Z,23.00
2023-05-07T10:28:57.278Z,22.70
2023-05-07T10:31:49.988Z,22.60
2023-05-07T10:34:22.915Z,22.60
2023-05-07T10:36:52.810Z,22.60
2023-05-07T10:39:22.604Z,22.70
2023-05-07T10:41:50.892Z,22.70
2023-05-07T10:44:30.225Z,22.80
2023-05-07T10:47:13.019Z,22.70
2023-05-07T10:49:42.982Z,22.80
2023-05-07T10:52:27.231Z,22.80
2023-05-07T10:55:22.423Z,22.70
2023-05-07T10:58:31.516Z,22.80
2023-05-07T11:01:54.760Z,22.80
2023-05-07T11:04:45.243Z,22.80
2023-05-07T11:07:29.655Z,22.80
2023-05-07T11:10:04.986Z,22.70
2023-05-07T11:12:50.386Z,22.60
2023-05-07T11:15:45.405Z,22.70
2023-05-07T11:18:19.765Z,22.90
2023-05-07T11:20:52.449Z,23.00
2023-05-07T11:23:36.550Z,23.00
2023-05-07T11:26:13.782Z,22.90
2023-05-07T11:28:43.549Z,23.00
2023-05-07T11:31:12.853Z,23.10
2023-05-07T11:33:41.771Z,23.10
2023-05-07T11:36:13.964Z,23.30
2023-05-07T11:38:46.637Z,23.20
2023-05-07T11:41:13.920Z,23.30
2023-05-07T11:43:58.652Z,23.50
2023-05-07T11:46:26.313Z,23.70
2023-05-07T11:48:53.696Z,23.70
2023-05-07T11:51:23.125Z,23.80
2023-05-07T11:53:51.109Z,23.70
2023-05-07T11:56:19.418Z,23.70
2023-05-07T11:58:48.636Z,23.50
2023-05-07T12:01:17.809Z,23.40
2023-05-07T12:03:47.075Z,23.50
2023-05-07T12:06:17.068Z,23.50
2023-05-07T12:08:47.901Z,23.70
2023-05-07T12:11:24.121Z,23.60
2023-05-07T12:13:51.601Z,23.70
2023-05-07T12:16:19.977Z,23.70
2023-05-07T12:18:47.763Z,23.60
2023-05-07T12:21:15.841Z,23.70
2023-05-07T12:23:43.189Z,23.70
2023-05-07T12:26:10.850Z,23.70
2023-05-07T12:28:42.136Z,23.70
2023-05-07T12:31:09.543Z,23.70
2023-05-07T12:33:37.197Z,23.60
2023-05-07T12:36:08.248Z,23.50
2023-05-07T12:38:39.701Z,23.70
2023-05-07T12:41:08.802Z,23.70
2023-05-07T12:43:36.087Z,23.80
2023-05-07T12:46:08.076Z,23.70
2023-05-07T12:48:38.364Z,23.80
2023-05-07T12:51:06.978Z,23.80
2023-05-07T12:53:34.462Z,23.90
2023-05-07T12:56:01.770Z,24.00
2023-05-07T12:58:34.928Z,24.00
2023-05-07T13:01:07.045Z,24.00
2023-05-07T13:03:37.164Z,24.00
2023-05-07T13:06:08.541Z,23.90
2023-05-07T13:08:38.542Z,24.00
2023-05-07T13:11:06.009Z,24.00
2023-05-07T13:13:34.504Z,24.10
2023-05-07T13:16:03.101Z,24.00
2023-05-07T13:18:32.006Z,23.90
2023-05-07T13:20:59.606Z,23.90
2023-05-07T13:23:27.392Z,24.10
2023-05-07T13:25:55.547Z,24.00
2023-05-07T13:28:23.632Z,24.00
2023-05-07T13:30:52.770Z,24.00
2023-05-07T13:33:20.046Z,24.20
2023-05-07T13:35:47.235Z,24.30
2023-05-07T13:38:16.799Z,24.40
2023-05-07T13:40:44.031Z,24.50
2023-05-07T13:43:11.735Z,24.70
2023-05-07T13:45:39.063Z,24.60
2023-05-07T13:48:06.544Z,24.60
2023-05-07T13:50:33.756Z,24.60
2023-05-07T13:53:00.904Z,24.50
2023-05-07T13:55:30.313Z,24.40
2023-05-07T13:57:59.098Z,24.50
2023-05-07T14:00:27.924Z,24.60
2023-05-07T14:02:56.014Z,24.60
2023-05-07T14:05:27.648Z,24.60
2023-05-07T14:07:56.110Z,24.50
2023-05-07T14:10:23.455Z,24.40
2023-05-07T14:12:50.918Z,24.30
2023-05-07T14:15:18.190Z,24.30
2023-05-07T14:17:45.588Z,24.30
2023-05-07T14:20:14.001Z,24.30
2023-05-07T14:22:41.635Z,24.20
2023-05-07T14:25:10.804Z,24.10
2023-05-07T14:27:38.526Z,24.00
2023-05-07T14:30:06.791Z,23.90
2023-05-07T14:32:34.637Z,24.00
2023-05-07T14:35:01.914Z,23.90
2023-05-07T14:37:29.152Z,23.90
2023-05-07T14:39:56.329Z,23.90
2023-05-07T14:42:23.567Z,23.90
2023-05-07T14:44:50.982Z,23.90
2023-05-07T14:47:19.894Z,24.00
2023-05-07T14:49:47.394Z,24.00
2023-05-07T14:52:14.661Z,23.90
2023-05-07T14:54:41.919Z,23.80
2023-05-07T14:57:10.796Z,23.80
2023-05-07T14:59:39.363Z,23.70
2023-05-07T15:02:08.961Z,23.80
2023-05-07T15:04:39.097Z,23.80
2023-05-07T15:07:06.264Z,23.70
2023-05-07T15:09:33.407Z,23.60
2023-05-07T15:12:01.171Z,23.40
2023-05-07T15:14:28.306Z,23.20
2023-05-07T15:16:55.622Z,23.20
2023-05-07T15:19:23.385Z,23.10
2023-05-07T15:21:50.823Z,23.00
2023-05-07T15:24:17.987Z,23.00
2023-05-07T15:26:45.300Z,22.90
2023-05-07T15:29:12.475Z,22.80
2023-05-07T15:31:39.996Z,22.70
2023-05-07T15:34:07.672Z,22.70
2023-05-07T15:36:34.861Z,22.60
2023-05-07T15:39:04.403Z,22.60
2023-05-07T15:41:31.641Z,22.60
2023-05-07T15:43:58.834Z,22.50
2023-05-07T15:46:26.890Z,22.50
2023-05-07T15:48:54.347Z,22.50
2023-05-07T15:51:22.889Z,22.50
2023-05-07T15:53:51.881Z,22.40
2023-05-07T15:56:19.096Z,22.20
2023-05-07T15:58:46.500Z,22.00
2023-05-07T16:01:13.772Z,21.90
2023-05-07T16:03:41.949Z,21.80
2023-05-07T16:06:11.899Z,21.70
2023-05-07T16:08:40.278Z,21.70
2023-05-07T16:11:07.496Z,21.70
2023-05-07T16:13:35.732Z,21.70
2023-05-07T16:16:03.377Z,21.60
2023-05-07T16:18:30.627Z,21.50
2023-05-07T16:20:59.511Z,21.50
2023-05-07T16:23:26.897Z,21.30
2023-05-07T16:25:54.058Z,21.30
2023-05-07T16:28:21.888Z,21.30
2023-05-07T16:30:50.636Z,21.20
2023-05-07T16:33:17.900Z,21.20
2023-05-07T16:35:47.509Z,21.10
2023-05-07T16:38:14.681Z,21.10
2023-05-07T16:40:41.965Z,21.10
2023-05-07T16:43:09.131Z,21.10
2023-05-07T16:45:36.295Z,21.00
2023-05-07T16:48:04.362Z,20.90
2023-05-07T16:50:31.574Z,20.90
2023-05-07T16:52:58.726Z,20.80
2023-05-07T16:55:25.879Z,20.80
2023-05-07T16:57:53.231Z,20.70
2023-05-07T17:00:20.556Z,20.70
2023-05-07T17:02:47.976Z,20.60
2023-05-07T17:05:15.394Z,20.60
2023-05-07T17:07:42.742Z,20.60
2023-05-07T17:10:10.712Z,20.60
2023-05-07T17:12:38.124Z,20.50
2023-05-07T17:15:05.936Z,20.40
2023-05-07T17:17:33.453Z,20.40
2023-05-07T17:20:01.317Z,20.40
2023-05-07T17:22:28.532Z,20.20
2023-05-07T17:24:55.708Z,20.20
2023-05-07T17:27:23.029Z,20.20
2023-05-07T17:29:50.609Z,20.10
2023-05-07T17:32:17.872Z,20.10
2023-05-07T17:34:45.068Z,20.10
2023-05-07T17:37:12.213Z,20.00
2023-05-07T17:39:39.399Z,20.00
2023-05-07T17:42:07.073Z,20.00
2023-05-07T17:44:35.023Z,20.00
2023-05-07T17:47:03.270Z,19.90
2023-05-07T17:49:30.417Z,19.90
2023-05-07T17:51:57.647Z,19.80
2023-05-07T17:54:27.882Z,19.80
2023-05-07T17:56:55.279Z,19.80
2023-05-07T17:59:22.525Z,19.70
2023-05-07T18:01:50.000Z,19.70
2023-05-07T18:04:17.332Z,19.70
2023-05-07T18:06:44.647Z,19.70
2023-05-07T18:09:11.837Z,19.60
2023-05-07T18:11:39.216Z,19.60
2023-05-07T18:14:06.507Z,19.60
2023-05-07T18:16:34.449Z,19.50
2023-05-07T18:19:02.254Z,19.50
2023-05-07T18:21:29.444Z,19.40
2023-05-07T18:23:56.707Z,19.40
2023-05-07T18:26:23.866Z,19.30
2023-05-07T18:28:51.327Z,19.30
2023-05-07T18:31:18.573Z,19.30
2023-05-07T18:33:45.782Z,19.20
2023-05-07T18:36:12.931Z,19.20
2023-05-07T18:38:42.418Z,19.10
2023-05-07T18:41:09.649Z,19.10
2023-05-07T18:43:36.903Z,19.10
2023-05-07T18:46:04.155Z,19.00
2023-05-07T18:48:31.388Z,19.00
2023-05-07T18:50:58.556Z,18.90
2023-05-07T18:53:25.855Z,18.90
2023-05-07T18:55:53.378Z,18.90
2023-05-07T18:58:20.908Z,18.80
2023-05-07T19:00:49.251Z,18.80
2023-05-07T19:03:17.271Z,18.70
2023-05-07T19:05:45.962Z,18.70
2023-05-07T19:08:13.257Z,18.60
2023-05-07T19:10:40.393Z,18.60
2023-05-07T19:13:07.644Z,18.60
2023-05-07T19:15:34.908Z,18.60
2023-05-07T19:18:03.849Z,18.50
2023-05-07T19:20:31.278Z,18.50
2023-05-07T19:22:58.421Z,18.40
2023-05-07T19:25:25.611Z,18.50
2023-05-07T19:27:52.794Z,18.40
2023-05-07T19:30:20.377Z,18.40
2023-05-07T19:32:47.644Z,18.30
2023-05-07T19:35:15.055Z,18.30
2023-05-07T19:37:42.365Z,18.30
2023-05-07T19:40:10.106Z,18.20
2023-05-07T19:42:37.333Z,18.20
2023-05-07T19:45:05.506Z,18.10
2023-05-07T19:47:32.931Z,18.10
2023-05-07T19:50:00.238Z,18.20
2023-05-07T19:52:27.492Z,18.20
2023-05-07T19:54:55.657Z,18.00
2023-05-07T19:57:22.889Z,18.10
2023-05-07T19:59:50.035Z,18.00
2023-05-07T20:02:17.294Z,18.00
2023-05-07T20:04:44.502Z,17.90
2023-05-07T20:07:11.678Z,17.80
2023-05-07T20:09:39.319Z,17.70
2023-05-07T20:12:06.931Z,17.70
2023-05-07T20:14:34.437Z,17.70
2023-05-07T20:17:01.640Z,17.60
2023-05-07T20:19:28.922Z,17.60
2023-05-07T20:21:56.772Z,17.60
2023-05-07T20:24:24.382Z,17.60
2023-05-07T20:26:51.562Z,17.50
2023-05-07T20:29:18.748Z,17.50
2023-05-07T20:31:46.070Z,17.40
2023-05-07T20:34:13.265Z,17.40
2023-05-07T20:36:40.420Z,17.40
2023-05-07T20:39:07.922Z,17.30
2023-05-07T20:41:35.064Z,17.40
2023-05-07T20:44:02.593Z,17.30
2023-05-07T20:46:30.192Z,17.20
2023-05-07T20:48:57.638Z,17.30
2023-05-07T20:51:24.824Z,17.20
2023-05-07T20:53:51.986Z,17.20
2023-05-07T20:56:19.328Z,17.10
2023-05-07T20:58:46.475Z,17.20
2023-05-07T21:01:13.864Z,17.10
2023-05-07T21:03:41.115Z,17.10
2023-05-07T21:06:08.348Z,17.10
2023-05-07T21:08:35.593Z,17.00
2023-05-07T21:11:03.259Z,17.00
2023-05-07T21:13:30.681Z,17.00
2023-05-07T21:15:57.873Z,17.00
2023-05-07T21:18:26.599Z,16.90
2023-05-07T21:20:53.874Z,16.90
2023-05-07T21:23:21.019Z,16.80
2023-05-07T21:25:49.622Z,16.80
2023-05-07T21:28:16.758Z,16.80
2023-05-07T21:30:43.956Z,16.70
2023-05-07T21:33:11.142Z,16.70
2023-05-07T21:35:38.346Z,16.70
2023-05-07T21:38:05.585Z,16.70
2023-05-07T21:40:32.794Z,16.70
2023-05-07T21:43:00.665Z,16.70
2023-05-07T21:45:28.174Z,16.60
2023-05-07T21:47:55.547Z,16.60
2023-05-07T21:50:23.122Z,16.60
2023-05-07T21:52:50.570Z,16.50
2023-05-07T21:55:18.355Z,16.50
2023-05-07T21:57:57.476Z,16.50
2023-05-07T22:00:32.635Z,16.50
2023-05-07T22:03:00.486Z,16.40
2023-05-07T22:05:28.062Z,16.50
2023-05-07T22:07:55.473Z,16.50
2023-05-07T22:10:22.953Z,16.50
2023-05-07T22:12:50.718Z,16.40
2023-05-07T22:15:18.366Z,16.30
2023-05-07T22:17:45.588Z,16.40
2023-05-07T22:20:12.994Z,16.40
2023-05-07T22:22:54.717Z,16.40
2023-05-07T22:25:23.239Z,16.30
2023-05-07T22:27:50.966Z,16.30
2023-05-07T22:30:18.431Z,16.20
2023-05-07T22:32:45.760Z,16.30
2023-05-07T22:35:12.974Z,16.20
2023-05-07T22:37:40.160Z,16.20
2023-05-07T22:40:07.927Z,16.20
2023-05-07T22:42:35.188Z,16.20
2023-05-07T22:45:02.963Z,16.20
2023-05-07T22:47:33.057Z,16.20
2023-05-07T22:50:00.911Z,16.20
2023-05-07T22:52:28.085Z,16.20
2023-05-07T22:54:55.268Z,16.20
2023-05-07T22:57:22.440Z,16.10
2023-05-07T22:59:54.341Z,16.10
2023-05-07T23:02:21.841Z,16.00
2023-05-07T23:04:49.225Z,16.00
2023-05-07T23:07:16.590Z,15.90
2023-05-07T23:09:44.010Z,15.90
2023-05-07T23:12:11.262Z,15.90
2023-05-07T23:14:38.502Z,15.80
2023-05-07T23:17:05.705Z,15.80
2023-05-07T23:19:33.202Z,15.80
2023-05-07T23:22:00.393Z,15.70
2023-05-07T23:24:27.646Z,15.80
2023-05-07T23:26:54.858Z,15.80
2023-05-07T23:29:22.016Z,15.70
2023-05-07T23:31:49.163Z,15.80
2023-05-07T23:34:23.491Z,15.60
2023-05-07T23:36:51.390Z,15.70
2023-05-07T23:39:19.535Z,15.70
2023-05-07T23:41:46.772Z,15.80
2023-05-07T23:44:16.280Z,15.70
2023-05-07T23:46:44.507Z,15.60
2023-05-07T23:49:12.017Z,15.70
2023-05-07T23:51:39.200Z,15.60
2023-05-07T23:54:07.155Z,15.60
2023-05-07T23:56:34.408Z,15.60
2023-05-07T23:59:01.554Z,15.70
